createdAt,value
2022-10-09T00:00:23.225Z,100327.42
2022-10-09T00:02:56.011Z,100327.00
2022-10-09T00:05:28.929Z,100320.45
2022-10-09T00:08:01.771Z,100320.06
2022-10-09T00:10:34.941Z,100319.14
2022-10-09T00:13:08.071Z,100319.98
2022-10-09T00:15:46.340Z,100321.60
2022-10-09T00:18:21.063Z,100311.81
2022-10-09T00:20:54.210Z,100313.04
2022-10-09T00:23:27.389Z,100309.03
2022-10-09T00:26:02.769Z,100311.23
2022-10-09T00:28:38.693Z,100306.33
2022-10-09T00:31:11.739Z,100304.95
2022-10-09T00:33:43.761Z,100306.17
2022-10-09T00:36:22.605Z,100303.40
2022-10-09T00:38:56.421Z,100299.15
2022-10-09T00:41:32.268Z,100304.30
2022-10-09T00:44:25.756Z,100315.92
2022-10-09T00:46:58.816Z,100306.68
2022-10-09T00:49:34.453Z,100308.41
2022-10-09T00:52:08.970Z,100308.88
2022-10-09T00:54:43.458Z,100307.91
2022-10-09T00:57:16.204Z,100307.91
2022-10-09T00:59:49.053Z,100309.56
2022-10-09T01:02:21.826Z,100304.70
2022-10-09T01:04:54.650Z,100303.91
2022-10-09T01:07:40.372Z,100311.84
2022-10-09T01:10:30.792Z,100308.80
2022-10-09T01:13:12.267Z,100311.03
2022-10-09T01:16:00.491Z,100305.63
2022-10-09T01:18:50.384Z,100313.23
2022-10-09T01:21:29.639Z,100301.22
2022-10-09T01:24:35.005Z,100308.56
2022-10-09T01:27:13.844Z,100302.03
2022-10-09T01:29:59.977Z,100305.95
2022-10-09T01:32:43.586Z,100295.48
2022-10-09T01:35:17.781Z,100291.98
2022-10-09T01:37:52.317Z,100291.01
2022-10-09T01:40:24.205Z,100294.77
2022-10-09T01:42:57.907Z,100290.27
2022-10-09T01:45:40.080Z,100285.29
2022-10-09T01:48:20.845Z,100282.67
2022-10-09T01:51:01.721Z,100281.36
2022-10-09T01:53:36.404Z,100284.86
2022-10-09T01:56:15.747Z,100287.98
2022-10-09T01:58:58.294Z,100283.72
2022-10-09T02:01:36.806Z,100285.92
2022-10-09T02:04:13.043Z,100279.72
2022-10-09T02:06:47.493Z,100282.75
2022-10-09T02:09:20.767Z,100280.52
2022-10-09T02:11:56.882Z,100280.14
2022-10-09T02:14:30.448Z,100275.20
2022-10-09T02:17:09.423Z,100274.73
2022-10-09T02:19:52.444Z,100272.28
2022-10-09T02:22:29.864Z,100271.44
2022-10-09T02:25:04.909Z,100270.14
2022-10-09T02:27:38.121Z,100260.81
2022-10-09T02:30:12.254Z,100262.05
2022-10-09T02:32:45.249Z,100261.96
2022-10-09T02:35:18.819Z,100264.53
2022-10-09T02:37:51.630Z,100265.76
2022-10-09T02:40:25.178Z,100255.59
2022-10-09T02:42:58.038Z,100258.63
2022-10-09T02:45:30.908Z,100260.75
2022-10-09T02:48:03.999Z,100257.74
2022-10-09T02:50:37.855Z,100256.36
2022-10-09T02:53:10.883Z,100258.39
2022-10-09T02:55:44.050Z,100254.30
2022-10-09T02:58:16.727Z,100257.64
2022-10-09T03:00:54.803Z,100256.25
2022-10-09T03:03:27.791Z,100253.97
2022-10-09T03:06:12.087Z,100256.08
2022-10-09T03:08:46.549Z,100260.51
2022-10-09T03:11:21.307Z,100257.39
2022-10-09T03:13:55.377Z,100259.04
2022-10-09T03:16:28.932Z,100255.45
2022-10-09T03:19:03.361Z,100253.17
2022-10-09T03:21:36.082Z,100255.20
2022-10-09T03:24:10.693Z,100250.31
2022-10-09T03:26:43.684Z,100249.30
2022-10-09T03:29:16.743Z,100245.30
2022-10-09T03:31:52.908Z,100247.91
2022-10-09T03:34:24.748Z,100250.53
2022-10-09T03:36:57.575Z,100250.53
2022-10-09T03:39:30.413Z,100249.14
2022-10-09T03:42:04.649Z,100238.20
2022-10-09T03:44:37.648Z,100241.38
2022-10-09T03:47:10.888Z,100246.86
2022-10-09T03:49:43.759Z,100253.81
2022-10-09T03:52:16.477Z,100248.08
2022-10-09T03:54:49.763Z,100243.36
2022-10-09T03:57:22.684Z,100244.66
2022-10-09T03:59:55.525Z,100248.67
2022-10-09T04:02:29.059Z,100244.83
2022-10-09T04:05:02.089Z,100235.17
2022-10-09T04:07:35.115Z,100236.41
2022-10-09T04:10:09.426Z,100238.94
2022-10-09T04:12:42.658Z,100240.23
2022-10-09T04:15:16.815Z,100238.59
2022-10-09T04:17:50.351Z,100243.02
2022-10-09T04:20:23.556Z,100233.15
2022-10-09T04:22:56.419Z,100229.78
2022-10-09T04:25:29.462Z,100232.64
2022-10-09T04:28:02.772Z,100227.58
2022-10-09T04:30:35.585Z,100224.55
2022-10-09T04:33:12.702Z,100220.23
2022-10-09T04:35:47.913Z,100218.93
2022-10-09T04:38:22.304Z,100215.09
2022-10-09T04:41:07.260Z,100220.06
2022-10-09T04:43:40.258Z,100218.03
2022-10-09T04:46:15.699Z,100219.97
2022-10-09T04:48:49.713Z,100217.18
2022-10-09T04:51:22.734Z,100210.08
2022-10-09T04:54:00.576Z,100219.13
2022-10-09T04:56:32.751Z,100223.30
2022-10-09T04:59:07.374Z,100224.92
2022-10-09T05:01:40.204Z,100226.98
2022-10-09T05:04:13.405Z,100222.45
2022-10-09T05:06:46.482Z,100221.95
2022-10-09T05:09:19.618Z,100220.54
2022-10-09T05:11:52.416Z,100225.33
2022-10-09T05:14:25.537Z,100218.44
2022-10-09T05:17:13.682Z,100219.78
2022-10-09T05:19:35.526Z,100205.83
2022-10-09T05:22:08.806Z,100207.59
2022-10-09T05:24:42.141Z,100209.81
2022-10-09T05:27:14.932Z,100204.44
2022-10-09T05:29:48.495Z,100202.44
2022-10-09T05:32:22.328Z,100195.69
2022-10-09T05:34:54.936Z,100182.80
2022-10-09T05:37:27.602Z,100180.53
2022-10-09T05:40:01.051Z,100175.66
2022-10-09T05:42:34.348Z,100176.08
2022-10-09T05:45:08.747Z,100165.52
2022-10-09T05:47:41.531Z,100165.45
2022-10-09T05:50:14.723Z,100165.94
2022-10-09T05:52:47.653Z,100162.84
2022-10-09T05:55:21.299Z,100154.06
2022-10-09T05:57:55.276Z,100157.55
2022-10-09T06:00:28.024Z,100164.16
2022-10-09T06:03:00.999Z,100164.26
2022-10-09T06:05:34.178Z,100165.64
2022-10-09T06:08:07.335Z,100161.76
2022-10-09T06:10:40.725Z,100157.34
2022-10-09T06:13:13.443Z,100161.23
2022-10-09T06:15:56.436Z,100165.55
2022-10-09T06:18:30.180Z,100166.36
2022-10-09T06:21:04.249Z,100155.66
2022-10-09T06:23:37.356Z,100155.91
2022-10-09T06:26:14.168Z,100147.41
2022-10-09T06:28:47.848Z,100151.20
2022-10-09T06:31:24.027Z,100147.61
2022-10-09T06:33:59.023Z,100147.54
2022-10-09T06:36:36.949Z,100140.89
2022-10-09T06:39:11.619Z,100146.95
2022-10-09T06:41:45.130Z,100138.52
2022-10-09T06:44:18.701Z,100131.78
2022-10-09T06:46:52.121Z,100122.01
2022-10-09T06:49:25.033Z,100123.94
2022-10-09T06:51:58.021Z,100110.17
2022-10-09T06:54:31.396Z,100107.44
2022-10-09T06:57:04.234Z,100114.84
2022-10-09T06:59:37.333Z,100114.38
2022-10-09T07:02:11.434Z,100118.16
2022-10-09T07:04:45.999Z,100113.53
2022-10-09T07:07:19.279Z,100120.31
2022-10-09T07:09:53.878Z,100116.62
2022-10-09T07:12:27.414Z,100108.48
2022-10-09T07:15:00.432Z,100104.83
2022-10-09T07:17:33.974Z,100100.25
2022-10-09T07:20:08.250Z,100095.62
2022-10-09T07:22:41.379Z,100089.17
2022-10-09T07:25:14.209Z,100094.05
2022-10-09T07:27:47.224Z,100090.98
2022-10-09T07:30:20.152Z,100094.53
2022-10-09T07:32:54.146Z,100102.45
2022-10-09T07:35:27.433Z,100108.16
2022-10-09T07:38:01.033Z,100106.84
2022-10-09T07:40:36.681Z,100108.16
2022-10-09T07:43:09.372Z,100112.13
2022-10-09T07:45:42.931Z,100113.88
2022-10-09T07:48:16.646Z,100118.39
2022-10-09T07:50:49.722Z,100116.30
2022-10-09T07:53:24.283Z,100118.25
2022-10-09T07:55:58.089Z,100108.86
2022-10-09T07:58:31.663Z,100103.09
2022-10-09T08:01:08.985Z,100108.86
2022-10-09T08:03:42.158Z,100099.19
2022-10-09T08:06:17.417Z,100096.91
2022-10-09T08:08:55.975Z,100094.64
2022-10-09T08:11:30.413Z,100083.98
2022-10-09T08:14:03.977Z,100083.89
2022-10-09T08:16:37.203Z,100085.05
2022-10-09T08:19:10.986Z,100076.92
2022-10-09T08:21:43.403Z,100082.77
2022-10-09T08:24:16.364Z,100079.35
2022-10-09T08:26:49.444Z,100075.83
2022-10-09T08:29:22.598Z,100073.15
2022-10-09T08:31:55.535Z,100074.47
2022-10-09T08:34:28.594Z,100066.14
2022-10-09T08:37:01.497Z,100077.27
2022-10-09T08:39:34.746Z,100071.17
2022-10-09T08:42:08.098Z,100061.56
2022-10-09T08:44:47.051Z,100058.19
2022-10-09T08:47:33.314Z,100053.52
2022-10-09T08:50:23.341Z,100055.02
2022-10-09T08:53:41.028Z,100053.43
2022-10-09T08:56:16.718Z,100045.09
2022-10-09T08:58:49.898Z,100039.73
2022-10-09T09:01:33.163Z,100045.43
2022-10-09T09:04:29.156Z,100041.36
2022-10-09T09:07:25.142Z,100040.34
2022-10-09T09:10:08.665Z,100050.73
2022-10-09T09:13:09.394Z,100045.63
2022-10-09T09:16:14.286Z,100046.44
2022-10-09T09:19:04.155Z,100047.31
2022-10-09T09:21:52.506Z,100042.91
2022-10-09T09:24:33.290Z,100044.72
2022-10-09T09:27:13.446Z,100044.56
2022-10-09T09:30:10.988Z,100035.57
2022-10-09T09:33:02.161Z,100039.02
2022-10-09T09:35:48.832Z,100040.86
2022-10-09T09:38:22.936Z,100038.28
2022-10-09T09:40:55.979Z,100031.72
2022-10-09T09:43:29.102Z,100030.87
2022-10-09T09:46:03.279Z,100031.80
2022-10-09T09:48:43.636Z,100034.91
2022-10-09T09:51:30.407Z,100024.82
2022-10-09T09:54:10.757Z,100019.09
2022-10-09T09:57:11.083Z,100020.09
2022-10-09T09:59:40.793Z,100015.69
2022-10-09T10:02:27.263Z,100020.05
2022-10-09T10:05:06.195Z,100018.18
2022-10-09T10:07:40.233Z,100009.30
2022-10-09T10:10:26.784Z,99996.53
2022-10-09T10:13:01.924Z,99990.84
2022-10-09T10:15:36.396Z,99982.10
2022-10-09T10:18:15.683Z,99975.88
2022-10-09T10:20:55.549Z,99969.23
2022-10-09T10:23:44.225Z,99971.88
2022-10-09T10:26:39.580Z,99962.29
2022-10-09T10:29:35.234Z,99947.05
2022-10-09T10:32:25.026Z,99943.35
2022-10-09T10:35:19.129Z,99935.34
2022-10-09T10:38:14.398Z,99934.33
2022-10-09T10:40:52.671Z,99937.75
2022-10-09T10:43:41.353Z,99930.94
2022-10-09T10:46:36.410Z,99928.46
2022-10-09T10:49:10.583Z,99926.80
2022-10-09T10:52:09.015Z,99929.51
2022-10-09T10:54:50.437Z,99925.63
2022-10-09T10:57:56.921Z,99922.18
2022-10-09T11:00:30.694Z,99924.02
2022-10-09T11:03:24.940Z,99923.19
2022-10-09T11:06:20.201Z,99925.02
2022-10-09T11:09:21.916Z,99921.81
2022-10-09T11:12:29.904Z,99918.16
2022-10-09T11:15:12.139Z,99920.19
2022-10-09T11:17:58.424Z,99913.88
2022-10-09T11:21:04.703Z,99918.64
2022-10-09T11:24:20.246Z,99923.00
2022-10-09T11:27:03.196Z,99918.50
2022-10-09T11:29:49.816Z,99922.80
2022-10-09T11:32:45.448Z,99928.91
2022-10-09T11:35:28.629Z,99928.41
2022-10-09T11:38:09.997Z,99931.46
2022-10-09T11:40:45.708Z,99944.59
2022-10-09T11:43:32.571Z,99944.97
2022-10-09T11:46:31.255Z,99939.15
2022-10-09T11:49:40.561Z,99947.87
2022-10-09T11:52:45.671Z,99945.60
2022-10-09T11:55:25.453Z,99941.57
2022-10-09T11:58:21.479Z,99936.62
2022-10-09T12:00:58.494Z,99938.77
2022-10-09T12:03:38.236Z,99939.98
2022-10-09T12:06:14.815Z,99945.69
2022-10-09T12:09:05.661Z,99944.80
2022-10-09T12:11:39.667Z,99945.66
2022-10-09T12:14:18.252Z,99946.13
2022-10-09T12:16:50.662Z,99950.53
2022-10-09T12:19:33.887Z,99946.56
2022-10-09T12:22:23.218Z,99948.36
2022-10-09T12:24:59.533Z,99938.67
2022-10-09T12:27:39.711Z,99940.91
2022-10-09T12:30:20.352Z,99934.36
2022-10-09T12:33:10.668Z,99926.02
2022-10-09T12:35:47.893Z,99924.70
2022-10-09T12:38:31.962Z,99923.82
2022-10-09T12:41:20.292Z,99918.53
2022-10-09T12:43:53.947Z,99921.58
2022-10-09T12:46:36.381Z,99920.23
2022-10-09T12:49:17.181Z,99919.76
2022-10-09T12:51:56.700Z,99916.17
2022-10-09T12:54:32.224Z,99918.34
2022-10-09T12:57:05.239Z,99914.72
2022-10-09T12:59:38.062Z,99910.31
2022-10-09T13:02:15.453Z,99909.84
2022-10-09T13:05:02.453Z,99901.87
2022-10-09T13:07:35.218Z,99908.08
2022-10-09T13:10:18.184Z,99905.44
2022-10-09T13:12:56.072Z,99899.67
2022-10-09T13:15:37.869Z,99896.56
2022-10-09T13:18:23.489Z,99899.64
2022-10-09T13:21:20.507Z,99890.33
2022-10-09T13:23:54.440Z,99879.70
2022-10-09T13:26:32.261Z,99879.19
2022-10-09T13:29:08.997Z,99880.48
2022-10-09T13:31:46.490Z,99880.00
2022-10-09T13:34:19.616Z,99877.36
2022-10-09T13:36:52.665Z,99873.80
2022-10-09T13:39:25.579Z,99875.56
2022-10-09T13:41:59.842Z,99872.02
2022-10-09T13:44:34.057Z,99885.22
2022-10-09T13:47:07.106Z,99880.34
2022-10-09T13:49:40.195Z,99872.39
2022-10-09T13:52:13.019Z,99881.13
2022-10-09T13:54:46.327Z,99886.37
2022-10-09T13:57:19.787Z,99890.34
2022-10-09T13:59:53.440Z,99893.86
2022-10-09T14:02:26.639Z,99897.83
2022-10-09T14:04:59.321Z,99893.42
2022-10-09T14:07:32.415Z,99891.63
2022-10-09T14:10:06.058Z,99893.32
2022-10-09T14:12:39.052Z,99901.21
2022-10-09T14:15:12.535Z,99900.73
2022-10-09T14:17:45.801Z,99905.58
2022-10-09T14:20:18.844Z,99912.63
2022-10-09T14:22:52.271Z,99915.27
2022-10-09T14:25:25.348Z,99918.31
2022-10-09T14:27:58.483Z,99916.08
2022-10-09T14:30:31.342Z,99913.84
2022-10-09T14:33:04.070Z,99915.13
2022-10-09T14:35:37.623Z,99916.88
2022-10-09T14:38:10.429Z,99918.64
2022-10-09T14:40:47.275Z,99923.45
2022-10-09T14:43:20.936Z,99921.66
2022-10-09T14:46:04.167Z,99919.42
2022-10-09T14:48:38.045Z,99923.34
2022-10-09T14:51:14.587Z,99911.39
2022-10-09T14:53:48.192Z,99903.84
2022-10-09T14:56:22.788Z,99908.61
2022-10-09T14:58:55.982Z,99908.09
2022-10-09T15:01:30.901Z,99908.91
2022-10-09T15:04:05.128Z,99908.87
2022-10-09T15:06:38.576Z,99906.62
2022-10-09T15:09:12.006Z,99905.31
2022-10-09T15:11:44.965Z,99905.67
2022-10-09T15:14:18.002Z,99907.84
2022-10-09T15:16:50.785Z,99906.44
2022-10-09T15:19:24.550Z,99909.05
2022-10-09T15:21:57.321Z,99912.53
2022-10-09T15:24:30.029Z,99904.14
2022-10-09T15:27:02.714Z,99901.94
2022-10-09T15:29:36.091Z,99903.66
2022-10-09T15:32:09.221Z,99908.02
2022-10-09T15:34:42.373Z,99913.70
2022-10-09T15:37:15.038Z,99910.98
2022-10-09T15:39:48.436Z,99909.63
2022-10-09T15:42:21.267Z,99911.39
2022-10-09T15:44:54.145Z,99910.91
2022-10-09T15:47:49.901Z,99913.55
2022-10-09T15:50:02.021Z,99913.52
2022-10-09T15:52:35.850Z,99912.16
2022-10-09T15:55:10.273Z,99912.55
2022-10-09T15:57:43.045Z,99918.67
2022-10-09T16:00:16.852Z,99918.27
2022-10-09T16:02:49.601Z,99920.44
2022-10-09T16:05:22.599Z,99917.75
2022-10-09T16:07:55.442Z,99915.92
2022-10-09T16:10:28.354Z,99918.11
2022-10-09T16:13:02.405Z,99918.92
2022-10-09T16:15:35.303Z,99922.40
2022-10-09T16:18:08.547Z,99926.35
2022-10-09T16:20:43.079Z,99920.20
2022-10-09T16:23:15.676Z,99923.31
2022-10-09T16:25:53.187Z,99926.84
2022-10-09T16:28:28.370Z,99930.75
2022-10-09T16:31:01.689Z,99922.80
2022-10-09T16:33:34.791Z,99921.48
2022-10-09T16:36:14.633Z,99924.55
2022-10-09T16:38:48.620Z,99929.83
2022-10-09T16:41:23.196Z,99924.12
2022-10-09T16:43:59.725Z,99925.03
2022-10-09T16:46:36.885Z,99927.23
2022-10-09T16:49:13.210Z,99921.91
2022-10-09T16:51:46.683Z,99926.31
2022-10-09T16:54:21.201Z,99919.72
2022-10-09T16:56:54.565Z,99924.99
2022-10-09T16:59:28.608Z,99921.91
2022-10-09T17:02:03.254Z,99927.67
2022-10-09T17:04:37.680Z,99917.95
2022-10-09T17:07:13.179Z,99919.72
2022-10-09T17:09:46.519Z,99917.04
2022-10-09T17:12:20.937Z,99910.80
2022-10-09T17:14:57.304Z,99907.77
2022-10-09T17:17:32.674Z,99903.80
2022-10-09T17:20:06.377Z,99904.21
2022-10-09T17:22:39.517Z,99901.09
2022-10-09T17:25:13.973Z,99900.13
2022-10-09T17:27:47.588Z,99896.58
2022-10-09T17:30:20.783Z,99896.53
2022-10-09T17:32:54.990Z,99900.45
2022-10-09T17:35:29.749Z,99894.30
2022-10-09T17:38:05.346Z,99895.58
2022-10-09T17:40:44.611Z,99898.62
2022-10-09T17:43:19.995Z,99896.38
2022-10-09T17:45:54.738Z,99902.48
2022-10-09T17:48:30.215Z,99905.12
2022-10-09T17:51:04.879Z,99904.17
2022-10-09T17:53:37.823Z,99903.28
2022-10-09T17:56:12.786Z,99898.89
2022-10-09T17:58:50.372Z,99897.97
2022-10-09T18:01:24.481Z,99897.09
2022-10-09T18:03:59.346Z,99891.30
2022-10-09T18:06:37.069Z,99889.98
2022-10-09T18:09:14.586Z,99888.18
2022-10-09T18:11:50.850Z,99884.19
2022-10-09T18:14:23.833Z,99883.78
2022-10-09T18:16:58.352Z,99880.66
2022-10-09T18:19:30.417Z,99880.59
2022-10-09T18:22:04.749Z,99878.34
2022-10-09T18:24:38.067Z,99886.61
2022-10-09T18:27:13.950Z,99884.38
2022-10-09T18:29:47.720Z,99886.57
2022-10-09T18:32:20.910Z,99882.58
2022-10-09T18:34:54.206Z,99879.46
2022-10-09T18:37:28.720Z,99876.30
2022-10-09T18:40:03.923Z,99885.97
2022-10-09T18:42:36.986Z,99883.73
2022-10-09T18:45:12.970Z,99885.09
2022-10-09T18:47:48.352Z,99877.58
2022-10-09T18:50:22.376Z,99873.14
2022-10-09T18:52:57.638Z,99881.09
2022-10-09T18:55:31.020Z,99881.05
2022-10-09T18:58:07.252Z,99882.33
2022-10-09T19:00:41.590Z,99886.69
2022-10-09T19:03:16.838Z,99885.80
2022-10-09T19:05:50.099Z,99885.84
2022-10-09T19:08:23.993Z,99888.00
2022-10-09T19:10:57.238Z,99881.84
2022-10-09T19:13:31.813Z,99880.48
2022-10-09T19:16:05.900Z,99879.56
2022-10-09T19:18:40.732Z,99876.45
2022-10-09T19:21:18.607Z,99867.61
2022-10-09T19:23:53.532Z,99868.05
2022-10-09T19:26:26.817Z,99864.45
2022-10-09T19:29:00.517Z,99862.70
2022-10-09T19:31:35.601Z,99861.70
2022-10-09T19:34:09.348Z,99858.59
2022-10-09T19:36:44.588Z,99858.06
2022-10-09T19:39:19.519Z,99853.19
2022-10-09T19:41:52.291Z,99849.59
2022-10-09T19:44:25.327Z,99843.44
2022-10-09T19:46:58.816Z,99845.20
2022-10-09T19:49:32.407Z,99839.41
2022-10-09T19:52:06.007Z,99838.48
2022-10-09T19:54:40.288Z,99835.84
2022-10-09T19:57:13.942Z,99835.80
2022-10-09T19:59:48.158Z,99832.28
2022-10-09T20:02:22.087Z,99830.45
2022-10-09T20:04:55.331Z,99827.33
2022-10-09T20:07:29.130Z,99829.12
2022-10-09T20:10:02.696Z,99831.80
2022-10-09T20:12:35.604Z,99825.22
2022-10-09T20:15:10.406Z,99825.17
2022-10-09T20:17:44.063Z,99821.22
2022-10-09T20:20:17.710Z,99818.16
2022-10-09T20:22:50.781Z,99816.43
2022-10-09T20:25:24.675Z,99818.63
2022-10-09T20:27:57.685Z,99808.93
2022-10-09T20:30:30.642Z,99808.93
2022-10-09T20:33:03.574Z,99806.73
2022-10-09T20:35:44.817Z,99803.25
2022-10-09T20:38:23.315Z,99800.19
2022-10-09T20:40:54.514Z,99799.30
2022-10-09T20:43:27.331Z,99798.87
2022-10-09T20:46:00.142Z,99799.34
2022-10-09T20:48:33.736Z,99795.39
2022-10-09T20:51:07.064Z,99795.39
2022-10-09T20:53:40.483Z,99790.53
2022-10-09T20:56:15.260Z,99789.25
2022-10-09T20:58:47.933Z,99789.73
2022-10-09T21:01:21.619Z,99791.45
2022-10-09T21:03:54.321Z,99790.13
2022-10-09T21:06:27.786Z,99780.42
2022-10-09T21:09:01.222Z,99781.78
2022-10-09T21:11:35.255Z,99783.49
2022-10-09T21:14:08.033Z,99781.66
2022-10-09T21:16:41.187Z,99782.45
2022-10-09T21:19:14.728Z,99781.61
2022-10-09T21:21:51.062Z,99783.41
2022-10-09T21:24:22.897Z,99778.59
2022-10-09T21:26:56.685Z,99778.14
2022-10-09T21:29:29.893Z,99770.20
2022-10-09T21:32:02.767Z,99771.91
2022-10-09T21:34:36.890Z,99776.39
2022-10-09T21:37:27.054Z,99772.00
2022-10-09T21:39:45.933Z,99775.07
2022-10-09T21:42:18.691Z,99768.92
2022-10-09T21:44:51.663Z,99767.13
2022-10-09T21:47:26.012Z,99767.08
2022-10-09T21:49:59.182Z,99765.73
2022-10-09T21:52:32.270Z,99765.68
2022-10-09T21:55:06.201Z,99759.53
2022-10-09T21:57:38.856Z,99762.16
2022-10-09T22:00:13.685Z,99761.30
2022-10-09T22:02:46.410Z,99762.21
2022-10-09T22:05:20.125Z,99761.30
2022-10-09T22:07:53.667Z,99759.53
2022-10-09T22:10:28.517Z,99754.63
2022-10-09T22:13:01.727Z,99752.86
2022-10-09T22:15:34.992Z,99753.27
2022-10-09T22:18:07.987Z,99751.98
2022-10-09T22:20:44.599Z,99756.86
2022-10-09T22:23:20.412Z,99763.01
2022-10-09T22:26:02.130Z,99770.47
2022-10-09T22:28:35.959Z,99760.33
2022-10-09T22:31:13.459Z,99762.09
2022-10-09T22:33:51.759Z,99762.97
2022-10-09T22:36:27.771Z,99762.09
2022-10-09T22:39:04.156Z,99754.58
2022-10-09T22:41:37.814Z,99754.58
2022-10-09T22:44:12.383Z,99765.08
2022-10-09T22:46:47.072Z,99773.69
2022-10-09T22:49:20.254Z,99772.68
2022-10-09T22:51:52.888Z,99769.91
2022-10-09T22:54:25.741Z,99767.69
2022-10-09T22:56:58.654Z,99766.80
2022-10-09T22:59:32.738Z,99764.97
2022-10-09T23:02:05.690Z,99768.88
2022-10-09T23:04:38.898Z,99771.90
2022-10-09T23:07:13.350Z,99772.33
2022-10-09T23:09:47.267Z,99781.94
2022-10-09T23:12:20.606Z,99782.83
2022-10-09T23:14:54.304Z,99781.50
2022-10-09T23:17:27.134Z,99783.66
2022-10-09T23:20:00.444Z,99780.54
2022-10-09T23:22:33.626Z,99784.40
2022-10-09T23:25:08.493Z,99783.48
2022-10-09T23:27:40.661Z,99788.75
2022-10-09T23:30:14.554Z,99787.43
2022-10-09T23:32:47.660Z,99793.97
2022-10-09T23:35:20.544Z,99791.77
2022-10-09T23:37:55.265Z,99790.41
2022-10-09T23:40:28.629Z,99793.88
2022-10-09T23:43:01.531Z,99794.62
2022-10-09T23:45:34.995Z,99788.20
2022-10-09T23:48:07.931Z,99792.27
2022-10-09T23:50:41.793Z,99789.05
2022-10-09T23:53:14.548Z,99781.45
2022-10-09T23:55:47.949Z,99788.81
2022-10-09T23:58:21.221Z,99787.45
